Time,TemperatureF,DewpointF,PressureIn,WindDirection,WindDirectionDegrees,WindSpeedMPH,WindSpeedGustMPH,Humidity,HourlyPrecipIn,Conditions,Clouds,dailyrainin,SolarRadiationWatts/m^2,SoftwareType,DateUTC
2013-06-01 00:00:00,71.5,71.5,29.83,ESE,110,0.0,0.0,100,0.00,,,0.00,0,Wunderground v.1.15,2013-06-01 07:00:00,
2013-06-01 00:07:00,71.4,71.4,29.83,ESE,116,0.0,2.0,100,0.00,,,0.00,0,Wunderground v.1.15,2013-06-01 07:07:00,
2013-06-01 00:13:00,71.4,71.4,29.82,ESE,118,0.0,0.0,100,0.00,,,0.00,0,Wunderground v.1.15,2013-06-01 07:13:00,
2013-06-01 00:18:00,71.3,71.3,29.82,ESE,106,0.0,1.0,100,0.00,,,0.00,0,Wunderground v.1.15,2013-06-01 07:18:00,
2013-06-01 00:23:00,71.2,71.2,29.82,ESE,106,0.0,2.0,100,0.00,,,0.00,0,Wunderground v.1.15,2013-06-01 07:23:00,
2013-06-01 00:29:00,71.2,71.2,29.83,ESE,108,0.0,3.0,100,0.00,,,0.00,0,Wunderground v.1.15,2013-06-01 07:29:00,
2013-06-01 00:34:00,71.2,71.2,29.83,ESE,108,0.0,0.0,100,0.00,,,0.00,0,Wunderground v.1.15,2013-06-01 07:34:00,
2013-06-01 00:39:00,71.0,71.0,29.83,ESE,111,1.0,2.0,100,0.00,,,0.00,0,Wunderground v.1.15,2013-06-01 07:39:00,
2013-06-01 00:45:00,70.8,70.8,29.83,ESE,108,0.0,2.0,100,0.00,,,0.00,0,Wunderground v.1.15,2013-06-01 07:45:00,
2013-06-01 00:51:00,70.6,70.6,29.83,ESE,107,0.0,0.0,100,0.00,,,0.00,0,Wunderground v.1.15,2013-06-01 07:51:00,
2013-06-01 00:57:00,70.3,70.3,29.83,ESE,107,0.0,0.0,100,0.00,,,0.00,0,Wunderground v.1.15,2013-06-01 07:57:00,
2013-06-01 01:02:00,70.1,70.1,29.83,ESE,107,0.0,5.0,100,0.00,,,0.00,0,Wunderground v.1.15,2013-06-01 08:02:00,
2013-06-01 01:08:00,70.1,70.1,29.83,ESE,107,0.0,5.0,100,0.00,,,0.00,0,Wunderground v.1.15,2013-06-01 08:08:00,
2013-06-01 01:14:00,70.0,70.0,29.83,ESE,107,0.0,1.0,100,0.00,,,0.00,0,Wunderground v.1.15,2013-06-01 08:14:00,
2013-06-01 01:20:00,70.1,70.1,29.83,ESE,111,0.0,0.0,100,0.00,,,0.00,0,Wunderground v.1.15,2013-06-01 08:20:00,
2013-06-01 01:25:00,70.1,70.1,29.83,ESE,117,0.0,2.0,100,0.00,,,0.00,0,Wunderground v.1.15,2013-06-01 08:25:00,
2013-06-01 01:30:00,70.1,70.1,29.83,ESE,114,0.0,0.0,100,0.00,,,0.00,0,Wunderground v.1.15,2013-06-01 08:30:00,
2013-06-01 01:36:00,70.1,70.1,29.83,ESE,114,0.0,1.0,100,0.00,,,0.00,0,Wunderground v.1.15,2013-06-01 08:36:00,
2013-06-01 01:42:00,69.9,69.9,29.83,ESE,120,1.0,1.0,100,0.00,,,0.00,0,Wunderground v.1.15,2013-06-01 08:42:00,
2013-06-01 01:48:00,69.8,69.8,29.83,ESE,106,0.0,1.0,100,0.00,,,0.00,0,Wunderground v.1.15,2013-06-01 08:48:00,
2013-06-01 01:53:00,69.6,69.6,29.83,ESE,108,1.0,1.0,100,0.00,,,0.00,0,Wunderground v.1.15,2013-06-01 08:53:00,
2013-06-01 01:59:00,69.4,69.4,29.83,ESE,116,0.0,1.0,100,0.00,,,0.00,0,Wunderground v.1.15,2013-06-01 08:59:00,
2013-06-01 02:08:00,69.5,69.5,29.83,ESE,116,0.0,4.0,100,0.00,,,0.00,0,Wunderground v.1.15,2013-06-01 09:08:00,
2013-06-01 02:13:00,69.6,69.6,29.83,ESE,116,0.0,0.0,100,0.00,,,0.00,0,Wunderground v.1.15,2013-06-01 09:13:00,
2013-06-01 02:19:00,69.4,69.4,29.83,ESE,116,0.0,0.0,100,0.00,,,0.00,0,Wunderground v.1.15,2013-06-01 09:19:00,
2013-06-01 02:25:00,69.3,69.3,29.83,ESE,116,0.0,0.0,100,0.00,,,0.00,0,Wunderground v.1.15,2013-06-01 09:25:00,
2013-06-01 02:30:00,69.2,69.2,29.83,ESE,115,0.0,0.0,100,0.00,,,0.00,0,Wunderground v.1.15,2013-06-01 09:30:00,
2013-06-01 02:36:00,69.0,69.0,29.83,ESE,104,1.0,2.0,100,0.00,,,0.00,0,Wunderground v.1.15,2013-06-01 09:36:00,
2013-06-01 02:42:00,69.0,69.0,29.83,ESE,121,1.0,4.0,100,0.00,,,0.00,0,Wunderground v.1.15,2013-06-01 09:42:00,
2013-06-01 02:48:00,69.0,69.0,29.83,ESE,117,1.0,4.0,100,0.00,,,0.00,0,Wunderground v.1.15,2013-06-01 09:48:00,
2013-06-01 02:54:00,68.9,68.9,29.83,ESE,108,1.0,2.0,100,0.00,,,0.00,0,Wunderground v.1.15,2013-06-01 09:54:00,
2013-06-01 03:00:00,68.7,68.7,29.83,ESE,118,1.0,1.0,100,0.00,,,0.00,0,Wunderground v.1.15,2013-06-01 10:00:00,
2013-06-01 03:08:00,68.7,68.7,29.83,ESE,112,2.0,3.0,100,0.00,,,0.00,0,Wunderground v.1.15,2013-06-01 10:08:00,
2013-06-01 03:13:00,68.6,68.6,29.83,ESE,112,2.0,2.0,100,0.00,,,0.00,0,Wunderground v.1.15,2013-06-01 10:13:00,
2013-06-01 03:19:00,68.5,68.5,29.83,ESE,120,0.0,2.0,100,0.00,,,0.00,0,Wunderground v.1.15,2013-06-01 10:19:00,
2013-06-01 03:25:00,68.4,68.4,29.84,ESE,115,0.0,1.0,100,0.00,,,0.00,0,Wunderground v.1.15,2013-06-01 10:25:00,
2013-06-01 03:31:00,67.4,67.4,29.83,ESE,104,1.0,1.0,100,0.00,,,0.00,0,Wunderground v.1.15,2013-06-01 10:31:00,
2013-06-01 03:37:00,66.6,66.6,29.84,East,100,0.0,1.0,100,0.00,,,0.00,0,Wunderground v.1.15,2013-06-01 10:37:00,
2013-06-01 03:43:00,66.5,66.5,29.83,East,100,0.0,0.0,100,0.00,,,0.00,0,Wunderground v.1.15,2013-06-01 10:43:00,
2013-06-01 03:49:00,66.3,66.3,29.83,East,100,0.0,1.0,100,0.00,,,0.00,0,Wunderground v.1.15,2013-06-01 10:49:00,
2013-06-01 03:55:00,66.5,66.5,29.83,ESE,103,1.0,1.0,100,0.00,,,0.00,0,Wunderground v.1.15,2013-06-01 10:55:00,
2013-06-01 04:01:00,66.7,66.7,29.83,ESE,120,0.0,7.0,100,0.00,,,0.00,0,Wunderground v.1.15,2013-06-01 11:01:00,
2013-06-01 04:08:00,66.4,66.4,29.83,ESE,118,0.0,7.0,100,0.00,,,0.00,0,Wunderground v.1.15,2013-06-01 11:08:00,
2013-06-01 04:13:00,65.6,65.6,29.83,ESE,107,0.0,0.0,100,0.00,,,0.00,0,Wunderground v.1.15,2013-06-01 11:13:00,
2013-06-01 04:19:00,65.1,65.1,29.83,East,91,0.0,1.0,100,0.00,,,0.00,0,Wunderground v.1.15,2013-06-01 11:19:00,
2013-06-01 04:25:00,64.9,64.9,29.83,East,91,0.0,0.0,100,0.00,,,0.00,0,Wunderground v.1.15,2013-06-01 11:25:00,
2013-06-01 04:30:00,64.7,64.7,29.83,East,91,0.0,0.0,100,0.00,,,0.00,0,Wunderground v.1.15,2013-06-01 11:30:00,
2013-06-01 04:35:00,64.5,64.5,29.83,East,91,0.0,0.0,100,0.00,,,0.00,0,Wunderground v.1.15,2013-06-01 11:35:00,
2013-06-01 04:41:00,64.4,64.4,29.83,East,100,2.0,4.0,100,0.00,,,0.00,0,Wunderground v.1.15,2013-06-01 11:41:00,
2013-06-01 04:46:00,64.4,64.4,29.83,ESE,104,0.0,4.0,100,0.00,,,0.00,0,Wunderground v.1.15,2013-06-01 11:46:00,
2013-06-01 04:51:00,64.5,64.5,29.83,ESE,110,1.0,1.0,100,0.00,,,0.00,0,Wunderground v.1.15,2013-06-01 11:51:00,
2013-06-01 04:57:00,64.4,64.4,29.83,ESE,119,0.0,2.0,100,0.00,,,0.00,0,Wunderground v.1.15,2013-06-01 11:57:00,
2013-06-01 05:03:00,63.9,63.9,29.83,ESE,119,0.0,2.0,100,0.00,,,0.00,0,Wunderground v.1.15,2013-06-01 12:03:00,
2013-06-01 05:08:00,63.3,63.3,29.83,East,92,0.0,2.0,100,0.00,,,0.00,0,Wunderground v.1.15,2013-06-01 12:08:00,
2013-06-01 05:14:00,63.4,63.4,29.82,ESE,111,4.0,4.0,100,0.00,,,0.00,0,Wunderground v.1.15,2013-06-01 12:14:00,
2013-06-01 05:20:00,63.7,63.7,29.82,ESE,111,5.0,5.0,100,0.00,,,0.00,0,Wunderground v.1.15,2013-06-01 12:20:00,
2013-06-01 05:26:00,64.0,64.0,29.82,SE,139,1.0,5.0,100,0.00,,,0.00,0,Wunderground v.1.15,2013-06-01 12:26:00,
2013-06-01 05:31:00,64.2,64.2,29.82,ESE,116,1.0,1.0,100,0.00,,,0.00,0,Wunderground v.1.15,2013-06-01 12:31:00,
2013-06-01 05:36:00,64.3,64.3,29.82,ESE,114,1.0,1.0,100,0.00,,,0.00,0,Wunderground v.1.15,2013-06-01 12:36:00,
2013-06-01 05:41:00,64.2,64.2,29.82,ESE,113,0.0,0.0,100,0.00,,,0.00,0,Wunderground v.1.15,2013-06-01 12:41:00,
2013-06-01 05:46:00,63.7,63.7,29.82,ESE,108,0.0,0.0,100,0.00,,,0.00,0,Wunderground v.1.15,2013-06-01 12:46:00,
2013-06-01 05:52:00,63.1,63.1,29.83,North,1,2.0,2.0,100,0.00,,,0.00,0,Wunderground v.1.15,2013-06-01 12:52:00,
2013-06-01 05:58:00,62.7,62.7,29.84,NNE,17,0.0,3.0,100,0.00,,,0.00,0,Wunderground v.1.15,2013-06-01 12:58:00,
2013-06-01 06:04:00,62.6,62.6,29.83,East,83,1.0,4.0,100,0.00,,,0.00,0,Wunderground v.1.15,2013-06-01 13:04:00,
2013-06-01 06:09:00,62.8,62.8,29.84,East,83,0.0,4.0,100,0.00,,,0.00,0,Wunderground v.1.15,2013-06-01 13:09:00,
2013-06-01 06:14:00,62.8,62.8,29.83,East,83,0.0,0.0,100,0.00,,,0.00,0,Wunderground v.1.15,2013-06-01 13:14:00,
2013-06-01 06:19:00,62.9,62.9,29.83,East,83,0.0,1.0,100,0.00,,,0.00,0,Wunderground v.1.15,2013-06-01 13:19:00,
2013-06-01 06:25:00,63.0,63.0,29.84,WNW,302,1.0,2.0,100,0.00,,,0.00,0,Wunderground v.1.15,2013-06-01 13:25:00,
2013-06-01 06:31:00,63.1,63.1,29.85,WNW,302,0.0,0.0,100,0.00,,,0.00,0,Wunderground v.1.15,2013-06-01 13:31:00,
2013-06-01 06:36:00,63.3,63.3,29.85,WNW,302,0.0,0.0,100,0.00,,,0.00,0,Wunderground v.1.15,2013-06-01 13:36:00,
2013-06-01 06:42:00,63.5,63.5,29.85,WNW,302,0.0,0.0,100,0.00,,,0.00,0,Wunderground v.1.15,2013-06-01 13:42:00,
2013-06-01 06:48:00,63.7,63.7,29.85,WNW,302,0.0,0.0,100,0.00,,,0.00,0,Wunderground v.1.15,2013-06-01 13:48:00,
2013-06-01 06:54:00,63.7,63.7,29.85,WNW,302,0.0,0.0,100,0.00,,,0.00,0,Wunderground v.1.15,2013-06-01 13:54:00,
2013-06-01 06:59:00,63.6,63.6,29.85,WNW,302,0.0,0.0,100,0.00,,,0.00,0,Wunderground v.1.15,2013-06-01 13:59:00,
2013-06-01 07:04:00,63.7,63.7,29.85,WNW,302,0.0,4.0,100,0.00,,,0.00,0,Wunderground v.1.15,2013-06-01 14:04:00,
2013-06-01 07:10:00,64.2,64.2,29.85,WNW,302,0.0,0.0,100,0.00,,,0.00,0,Wunderground v.1.15,2013-06-01 14:10:00,
2013-06-01 07:16:00,64.6,64.6,29.84,WNW,302,0.0,0.0,100,0.00,,,0.00,0,Wunderground v.1.15,2013-06-01 14:16:00,
2013-06-01 07:22:00,65.0,65.0,29.85,WNW,302,0.0,0.0,100,0.00,,,0.00,0,Wunderground v.1.15,2013-06-01 14:22:00,
2013-06-01 07:28:00,65.4,65.4,29.84,WNW,302,0.0,0.0,100,0.00,,,0.00,0,Wunderground v.1.15,2013-06-01 14:28:00,
2013-06-01 07:33:00,65.9,65.9,29.84,North,0,0.0,1.0,100,0.00,,,0.00,0,Wunderground v.1.15,2013-06-01 14:33:00,
2013-06-01 07:39:00,66.4,66.4,29.84,North,0,0.0,1.0,100,0.00,,,0.00,0,Wunderground v.1.15,2013-06-01 14:39:00,
2013-06-01 07:45:00,66.9,66.9,29.84,North,0,0.0,0.0,100,0.00,,,0.00,0,Wunderground v.1.15,2013-06-01 14:45:00,
2013-06-01 07:51:00,67.4,67.4,29.84,North,0,0.0,0.0,100,0.00,,,0.00,0,Wunderground v.1.15,2013-06-01 14:51:00,
2013-06-01 07:56:00,67.9,67.9,29.84,North,0,0.0,0.0,100,0.00,,,0.00,0,Wunderground v.1.15,2013-06-01 14:56:00,
2013-06-01 08:02:00,68.4,68.4,29.84,North,0,0.0,1.0,100,0.00,,,0.00,0,Wunderground v.1.15,2013-06-01 15:02:00,
2013-06-01 08:08:00,68.8,68.8,29.84,NW,323,1.0,1.0,100,0.00,,,0.00,0,Wunderground v.1.15,2013-06-01 15:08:00,
2013-06-01 08:13:00,69.1,69.1,29.84,NW,323,0.0,0.0,100,0.00,,,0.00,0,Wunderground v.1.15,2013-06-01 15:13:00,
2013-06-01 08:19:00,69.5,69.5,29.84,NW,323,0.0,0.0,100,0.00,,,0.00,0,Wunderground v.1.15,2013-06-01 15:19:00,
2013-06-01 08:25:00,69.8,69.8,29.84,NW,323,0.0,0.0,100,0.00,,,0.00,0,Wunderground v.1.15,2013-06-01 15:25:00,
2013-06-01 08:31:00,70.3,70.3,29.84,NW,322,0.0,0.0,100,0.00,,,0.00,0,Wunderground v.1.15,2013-06-01 15:31:00,
2013-06-01 08:37:00,70.7,70.7,29.84,NW,322,0.0,0.0,100,0.00,,,0.00,0,Wunderground v.1.15,2013-06-01 15:37:00,
2013-06-01 08:43:00,71.3,71.3,29.84,NW,322,1.0,1.0,100,0.00,,,0.00,0,Wunderground v.1.15,2013-06-01 15:43:00,
2013-06-01 08:48:00,71.7,71.7,29.84,West,279,0.0,1.0,100,0.00,,,0.00,0,Wunderground v.1.15,2013-06-01 15:48:00,
2013-06-01 08:54:00,72.3,72.3,29.83,West,279,0.0,0.0,100,0.00,,,0.00,0,Wunderground v.1.15,2013-06-01 15:54:00,
2013-06-01 09:00:00,72.7,72.7,29.84,West,279,0.0,0.0,100,0.00,,,0.00,0,Wunderground v.1.15,2013-06-01 16:00:00,
2013-06-01 09:08:00,73.4,73.4,29.83,WNW,292,0.0,1.0,100,0.00,,,0.00,0,Wunderground v.1.15,2013-06-01 16:08:00,
2013-06-01 09:13:00,73.9,73.9,29.83,WNW,292,0.0,0.0,100,0.00,,,0.00,0,Wunderground v.1.15,2013-06-01 16:13:00,
2013-06-01 09:19:00,74.4,74.4,29.83,South,188,0.0,1.0,100,0.00,,,0.00,0,Wunderground v.1.15,2013-06-01 16:19:00,
2013-06-01 09:25:00,74.7,74.7,29.83,West,271,0.0,0.0,100,0.00,,,0.00,0,Wunderground v.1.15,2013-06-01 16:25:00,
2013-06-01 09:30:00,75.1,75.1,29.83,WNW,290,3.0,3.0,100,0.00,,,0.00,0,Wunderground v.1.15,2013-06-01 16:30:00,
2013-06-01 09:36:00,75.4,75.4,29.83,West,273,0.0,3.0,100,0.00,,,0.00,0,Wunderground v.1.15,2013-06-01 16:36:00,
2013-06-01 09:42:00,75.7,75.7,29.83,West,270,1.0,2.0,100,0.00,,,0.00,0,Wunderground v.1.15,2013-06-01 16:42:00,
2013-06-01 09:48:00,76.0,76.0,29.83,SSW,206,1.0,2.0,100,0.00,,,0.00,0,Wunderground v.1.15,2013-06-01 16:48:00,
2013-06-01 09:53:00,76.3,76.3,29.83,West,278,1.0,4.0,100,0.00,,,0.00,0,Wunderground v.1.15,2013-06-01 16:53:00,
2013-06-01 09:59:00,76.6,76.6,29.83,West,263,1.0,4.0,100,0.00,,,0.00,0,Wunderground v.1.15,2013-06-01 16:59:00,
2013-06-01 10:04:00,76.9,76.9,29.82,West,268,0.0,2.0,100,0.00,,,0.00,0,Wunderground v.1.15,2013-06-01 17:04:00,
2013-06-01 10:09:00,77.1,77.1,29.82,NW,309,2.0,2.0,100,0.00,,,0.00,0,Wunderground v.1.15,2013-06-01 17:09:00,
2013-06-01 10:15:00,77.5,77.5,29.82,NW,311,4.0,4.0,100,0.00,,,0.00,0,Wunderground v.1.15,2013-06-01 17:15:00,
2013-06-01 10:21:00,77.9,77.9,29.82,West,260,0.0,2.0,100,0.00,,,0.00,0,Wunderground v.1.15,2013-06-01 17:21:00,
2013-06-01 10:27:00,78.4,78.4,29.82,SW,226,0.0,2.0,100,0.00,,,0.00,0,Wunderground v.1.15,2013-06-01 17:27:00,
2013-06-01 10:32:00,78.8,78.8,29.82,SW,234,0.0,0.0,100,0.00,,,0.00,0,Wunderground v.1.15,2013-06-01 17:32:00,
2013-06-01 10:38:00,79.1,79.1,29.82,WSW,253,0.0,4.0,100,0.00,,,0.00,0,Wunderground v.1.15,2013-06-01 17:38:00,
2013-06-01 10:44:00,79.6,79.6,29.82,WNW,302,2.0,3.0,100,0.00,,,0.00,0,Wunderground v.1.15,2013-06-01 17:44:00,
2013-06-01 10:50:00,80.0,80.0,29.82,WNW,297,1.0,1.0,100,0.00,,,0.00,0,Wunderground v.1.15,2013-06-01 17:50:00,
2013-06-01 10:55:00,80.3,80.3,29.82,West,263,0.0,4.0,100,0.00,,,0.00,0,Wunderground v.1.15,2013-06-01 17:55:00,
2013-06-01 11:01:00,80.6,80.6,29.81,West,278,3.0,5.0,100,0.00,,,0.00,0,Wunderground v.1.15,2013-06-01 18:01:00,
2013-06-01 11:08:00,81.1,81.1,29.81,West,268,0.0,5.0,100,0.00,,,0.00,0,Wunderground v.1.15,2013-06-01 18:08:00,
2013-06-01 11:13:00,81.4,81.4,29.81,NNW,333,1.0,3.0,100,0.00,,,0.00,0,Wunderground v.1.15,2013-06-01 18:13:00,
2013-06-01 11:19:00,81.8,81.8,29.81,WSW,249,2.0,7.0,100,0.00,,,0.00,0,Wunderground v.1.15,2013-06-01 18:19:00,
2013-06-01 11:24:00,82.1,82.1,29.81,WNW,302,0.0,1.0,100,0.00,,,0.00,0,Wunderground v.1.15,2013-06-01 18:24:00,
2013-06-01 11:30:00,82.9,82.9,29.80,NW,317,3.0,3.0,100,0.00,,,0.00,0,Wunderground v.1.15,2013-06-01 18:30:00,
2013-06-01 11:36:00,83.3,83.3,29.80,WSW,255,1.0,7.0,100,0.00,,,0.00,0,Wunderground v.1.15,2013-06-01 18:36:00,
2013-06-01 11:42:00,83.8,83.8,29.81,West,270,5.0,5.0,100,0.00,,,0.00,0,Wunderground v.1.15,2013-06-01 18:42:00,
2013-06-01 11:47:00,84.1,84.1,29.80,WNW,291,3.0,6.0,100,0.00,,,0.00,0,Wunderground v.1.15,2013-06-01 18:47:00,
2013-06-01 11:53:00,84.5,84.5,29.80,WSW,251,2.0,3.0,100,0.00,,,0.00,0,Wunderground v.1.15,2013-06-01 18:53:00,
2013-06-01 11:59:00,85.1,85.1,29.80,NW,324,2.0,6.0,100,0.00,,,0.00,0,Wunderground v.1.15,2013-06-01 18:59:00,
2013-06-01 12:08:00,86.0,86.0,29.80,WSW,250,6.0,6.0,100,0.00,,,0.00,0,Wunderground v.1.15,2013-06-01 19:08:00,
2013-06-01 12:13:00,86.4,86.4,29.80,WSW,245,3.0,5.0,100,0.00,,,0.00,0,Wunderground v.1.15,2013-06-01 19:13:00,
2013-06-01 12:19:00,87.0,87.0,29.80,West,270,3.0,5.0,100,0.00,,,0.00,0,Wunderground v.1.15,2013-06-01 19:19:00,
2013-06-01 12:25:00,87.6,87.6,29.80,NW,324,8.0,8.0,100,0.00,,,0.00,0,Wunderground v.1.15,2013-06-01 19:25:00,
2013-06-01 12:30:00,87.9,87.9,29.80,SW,222,3.0,3.0,100,0.00,,,0.00,0,Wunderground v.1.15,2013-06-01 19:30:00,
2013-06-01 12:35:00,88.6,88.6,29.80,WSW,237,0.0,3.0,100,0.00,,,0.00,0,Wunderground v.1.15,2013-06-01 19:35:00,
2013-06-01 12:41:00,89.3,89.3,29.79,West,266,1.0,4.0,100,0.00,,,0.00,0,Wunderground v.1.15,2013-06-01 19:41:00,
2013-06-01 12:47:00,89.8,89.8,29.79,WSW,256,2.0,4.0,100,0.00,,,0.00,0,Wunderground v.1.15,2013-06-01 19:47:00,
2013-06-01 12:53:00,90.3,90.3,29.79,WSW,239,1.0,2.0,100,0.00,,,0.00,0,Wunderground v.1.15,2013-06-01 19:53:00,
2013-06-01 12:59:00,90.7,90.7,29.79,NW,310,5.0,6.0,100,0.00,,,0.00,0,Wunderground v.1.15,2013-06-01 19:59:00,
2013-06-01 13:08:00,90.1,90.1,29.78,WSW,245,4.0,10.0,100,0.00,,,0.00,0,Wunderground v.1.15,2013-06-01 20:08:00,
2013-06-01 13:13:00,90.2,90.2,29.78,SW,222,1.0,4.0,100,0.00,,,0.00,0,Wunderground v.1.15,2013-06-01 20:13:00,
2013-06-01 13:19:00,90.7,90.7,29.78,SW,216,4.0,4.0,100,0.00,,,0.00,0,Wunderground v.1.15,2013-06-01 20:19:00,
2013-06-01 13:25:00,91.0,91.0,29.78,WSW,244,2.0,8.0,100,0.00,,,0.00,0,Wunderground v.1.15,2013-06-01 20:25:00,
2013-06-01 13:31:00,91.7,91.7,29.78,WNW,282,3.0,3.0,100,0.00,,,0.00,0,Wunderground v.1.15,2013-06-01 20:31:00,
2013-06-01 13:37:00,91.9,91.9,29.78,NW,312,5.0,5.0,100,0.00,,,0.00,0,Wunderground v.1.15,2013-06-01 20:37:00,
2013-06-01 13:42:00,92.1,92.1,29.78,West,261,2.0,5.0,100,0.00,,,0.00,0,Wunderground v.1.15,2013-06-01 20:42:00,
2013-06-01 13:48:00,92.7,92.7,29.77,WSW,239,1.0,6.0,100,0.00,,,0.00,0,Wunderground v.1.15,2013-06-01 20:48:00,
2013-06-01 13:54:00,92.9,92.9,29.77,West,277,3.0,5.0,100,0.00,,,0.00,0,Wunderground v.1.15,2013-06-01 20:54:00,
2013-06-01 14:00:00,93.1,93.1,29.77,NW,320,3.0,3.0,100,0.00,,,0.00,0,Wunderground v.1.15,2013-06-01 21:00:00,
2013-06-01 14:08:00,93.5,93.5,29.77,WNW,293,3.0,7.0,100,0.00,,,0.00,0,Wunderground v.1.15,2013-06-01 21:08:00,
2013-06-01 14:13:00,93.6,93.6,29.76,NW,326,3.0,3.0,100,0.00,,,0.00,0,Wunderground v.1.15,2013-06-01 21:13:00,
2013-06-01 14:19:00,93.5,93.5,29.77,WNW,298,2.0,3.0,100,0.00,,,0.00,0,Wunderground v.1.15,2013-06-01 21:19:00,
2013-06-01 14:24:00,93.9,93.9,29.76,WSW,248,0.0,1.0,100,0.00,,,0.00,0,Wunderground v.1.15,2013-06-01 21:24:00,
2013-06-01 14:30:00,94.4,94.4,29.76,WSW,246,5.0,5.0,100,0.00,,,0.00,0,Wunderground v.1.15,2013-06-01 21:30:00,
2013-06-01 14:36:00,94.4,94.4,29.76,SW,218,1.0,5.0,100,0.00,,,0.00,0,Wunderground v.1.15,2013-06-01 21:36:00,
2013-06-01 14:42:00,93.6,93.6,29.76,West,262,1.0,3.0,100,0.00,,,0.00,0,Wunderground v.1.15,2013-06-01 21:42:00,
2013-06-01 14:47:00,95.9,95.9,29.76,NNW,337,2.0,3.0,100,0.00,,,0.00,0,Wunderground v.1.15,2013-06-01 21:47:00,
2013-06-01 14:53:00,96.5,96.5,29.76,NE,49,2.0,3.0,100,0.00,,,0.00,0,Wunderground v.1.15,2013-06-01 21:53:00,
2013-06-01 14:59:00,95.7,95.7,29.76,NE,53,0.0,6.0,100,0.00,,,0.00,0,Wunderground v.1.15,2013-06-01 21:59:00,
2013-06-01 15:08:00,96.3,96.3,29.76,NW,309,0.0,8.0,100,0.00,,,0.00,0,Wunderground v.1.15,2013-06-01 22:08:00,
2013-06-01 15:13:00,96.7,96.7,29.75,North,4,4.0,4.0,100,0.00,,,0.00,0,Wunderground v.1.15,2013-06-01 22:13:00,
2013-06-01 15:19:00,96.5,96.5,29.75,NW,306,5.0,5.0,100,0.00,,,0.00,0,Wunderground v.1.15,2013-06-01 22:19:00,
2013-06-01 15:24:00,96.8,96.8,29.75,NNW,340,4.0,4.0,100,0.00,,,0.00,0,Wunderground v.1.15,2013-06-01 22:24:00,
2013-06-01 15:30:00,96.7,96.7,29.75,West,278,3.0,3.0,100,0.00,,,0.00,0,Wunderground v.1.15,2013-06-01 22:30:00,
2013-06-01 15:36:00,96.9,96.9,29.75,NNW,344,4.0,9.0,100,0.00,,,0.00,0,Wunderground v.1.15,2013-06-01 22:36:00,
2013-06-01 15:42:00,96.5,96.5,29.75,NNW,347,3.0,4.0,100,0.00,,,0.00,0,Wunderground v.1.15,2013-06-01 22:42:00,
2013-06-01 15:47:00,96.0,96.0,29.75,WNW,293,1.0,4.0,100,0.00,,,0.00,0,Wunderground v.1.15,2013-06-01 22:47:00,
2013-06-01 15:53:00,96.3,96.3,29.75,WNW,294,0.0,4.0,100,0.00,,,0.00,0,Wunderground v.1.15,2013-06-01 22:53:00,
2013-06-01 15:59:00,96.7,96.7,29.74,WNW,286,0.0,5.0,100,0.00,,,0.00,0,Wunderground v.1.15,2013-06-01 22:59:00,
2013-06-01 16:08:00,96.1,96.1,29.74,WNW,300,3.0,6.0,100,0.00,,,0.00,0,Wunderground v.1.15,2013-06-01 23:08:00,
2013-06-01 16:13:00,95.5,95.5,29.74,NW,325,0.0,3.0,100,0.00,,,0.00,0,Wunderground v.1.15,2013-06-01 23:13:00,
2013-06-01 16:19:00,95.3,95.3,29.74,WNW,303,1.0,3.0,100,0.00,,,0.00,0,Wunderground v.1.15,2013-06-01 23:19:00,
2013-06-01 16:25:00,96.0,96.0,29.74,WNW,292,3.0,5.0,100,0.00,,,0.00,0,Wunderground v.1.15,2013-06-01 23:25:00,
2013-06-01 16:31:00,96.4,96.4,29.73,NW,324,1.0,3.0,100,0.00,,,0.00,0,Wunderground v.1.15,2013-06-01 23:31:00,
2013-06-01 16:37:00,96.7,96.7,29.73,West,270,3.0,3.0,100,0.00,,,0.00,0,Wunderground v.1.15,2013-06-01 23:37:00,
2013-06-01 16:43:00,96.7,96.7,29.73,NNW,333,0.0,3.0,100,0.00,,,0.00,0,Wunderground v.1.15,2013-06-01 23:43:00,
2013-06-01 16:48:00,96.9,96.9,29.73,NW,326,1.0,3.0,100,0.00,,,0.00,0,Wunderground v.1.15,2013-06-01 23:48:00,
2013-06-01 16:54:00,96.6,96.6,29.73,NW,317,2.0,3.0,100,0.00,,,0.00,0,Wunderground v.1.15,2013-06-01 23:54:00,
2013-06-01 17:00:00,96.6,96.6,29.73,West,267,1.0,1.0,100,0.00,,,0.00,0,Wunderground v.1.15,2013-06-02 00:00:00,
2013-06-01 17:08:00,96.5,96.5,29.72,WSW,250,0.0,9.0,100,0.00,,,0.00,0,Wunderground v.1.15,2013-06-02 00:08:00,
2013-06-01 17:14:00,96.5,96.5,29.72,WNW,284,2.0,3.0,100,0.00,,,0.00,0,Wunderground v.1.15,2013-06-02 00:14:00,
2013-06-01 17:20:00,96.6,96.6,29.72,WNW,284,2.0,2.0,100,0.00,,,0.00,0,Wunderground v.1.15,2013-06-02 00:20:00,
2013-06-01 17:26:00,96.4,96.4,29.72,West,266,1.0,2.0,100,0.00,,,0.00,0,Wunderground v.1.15,2013-06-02 00:26:00,
2013-06-01 17:32:00,96.1,96.1,29.72,WSW,242,0.0,3.0,100,0.00,,,0.00,0,Wunderground v.1.15,2013-06-02 00:32:00,
2013-06-01 17:38:00,95.9,95.9,29.72,WSW,243,0.0,3.0,100,0.00,,,0.00,0,Wunderground v.1.15,2013-06-02 00:38:00,
2013-06-01 17:44:00,95.9,95.9,29.71,WNW,289,1.0,2.0,100,0.00,,,0.00,0,Wunderground v.1.15,2013-06-02 00:44:00,
2013-06-01 17:50:00,95.8,95.8,29.71,WSW,245,0.0,0.0,100,0.00,,,0.00,0,Wunderground v.1.15,2013-06-02 00:50:00,
2013-06-01 17:56:00,95.7,95.7,29.70,WNW,294,0.0,2.0,100,0.00,,,0.00,0,Wunderground v.1.15,2013-06-02 00:56:00,
2013-06-01 18:02:00,95.6,95.6,29.70,SW,234,1.0,6.0,100,0.00,,,0.00,0,Wunderground v.1.15,2013-06-02 01:02:00,
2013-06-01 18:08:00,95.5,95.5,29.70,West,270,0.0,6.0,100,0.00,,,0.00,0,Wunderground v.1.15,2013-06-02 01:08:00,
2013-06-01 18:13:00,95.2,95.2,29.70,SSW,213,0.0,0.0,100,0.00,,,0.00,0,Wunderground v.1.15,2013-06-02 01:13:00,
2013-06-01 18:19:00,94.9,94.9,29.70,WSW,243,1.0,1.0,100,0.00,,,0.00,0,Wunderground v.1.15,2013-06-02 01:19:00,
2013-06-01 18:25:00,94.9,94.9,29.70,West,278,0.0,2.0,100,0.00,,,0.00,0,Wunderground v.1.15,2013-06-02 01:25:00,
2013-06-01 18:31:00,94.7,94.7,29.69,West,263,0.0,0.0,100,0.00,,,0.00,0,Wunderground v.1.15,2013-06-02 01:31:00,
2013-06-01 18:37:00,94.4,94.4,29.70,West,263,0.0,2.0,100,0.00,,,0.00,0,Wunderground v.1.15,2013-06-02 01:37:00,
2013-06-01 18:42:00,94.2,94.2,29.70,WSW,251,0.0,0.0,100,0.00,,,0.00,0,Wunderground v.1.15,2013-06-02 01:42:00,
2013-06-01 18:48:00,94.0,94.0,29.70,WSW,248,0.0,2.0,100,0.00,,,0.00,0,Wunderground v.1.15,2013-06-02 01:48:00,
2013-06-01 18:53:00,93.9,93.9,29.70,WSW,248,0.0,0.0,100,0.00,,,0.00,0,Wunderground v.1.15,2013-06-02 01:53:00,
2013-06-01 18:58:00,93.6,93.6,29.70,WSW,248,0.0,0.0,100,0.00,,,0.00,0,Wunderground v.1.15,2013-06-02 01:58:00,
2013-06-01 19:03:00,93.5,93.5,29.70,WSW,248,0.0,5.0,100,0.00,,,0.00,0,Wunderground v.1.15,2013-06-02 02:03:00,
2013-06-01 19:09:00,93.2,93.2,29.69,WSW,248,0.0,5.0,100,0.00,,,0.00,0,Wunderground v.1.15,2013-06-02 02:09:00,
2013-06-01 19:15:00,93.0,93.0,29.70,WSW,248,0.0,1.0,100,0.00,,,0.00,0,Wunderground v.1.15,2013-06-02 02:15:00,
2013-06-01 19:20:00,92.7,92.7,29.70,WSW,248,0.0,0.0,100,0.00,,,0.00,0,Wunderground v.1.15,2013-06-02 02:20:00,
2013-06-01 19:26:00,92.5,92.5,29.70,WSW,248,1.0,1.0,100,0.00,,,0.00,0,Wunderground v.1.15,2013-06-02 02:26:00,
2013-06-01 19:32:00,92.0,92.0,29.70,WSW,248,0.0,1.0,100,0.00,,,0.00,0,Wunderground v.1.15,2013-06-02 02:32:00,
2013-06-01 19:38:00,91.6,91.6,29.70,West,276,0.0,1.0,100,0.00,,,0.00,0,Wunderground v.1.15,2013-06-02 02:38:00,
2013-06-01 19:44:00,91.2,91.2,29.69,West,276,0.0,0.0,100,0.00,,,0.00,0,Wunderground v.1.15,2013-06-02 02:44:00,
2013-06-01 19:50:00,90.9,90.9,29.69,West,276,0.0,0.0,100,0.00,,,0.00,0,Wunderground v.1.15,2013-06-02 02:50:00,
2013-06-01 19:55:00,90.7,90.7,29.69,West,276,0.0,0.0,100,0.00,,,0.00,0,Wunderground v.1.15,2013-06-02 02:55:00,
2013-06-01 20:00:00,90.3,90.3,29.69,West,276,0.0,0.0,100,0.00,,,0.00,0,Wunderground v.1.15,2013-06-02 03:00:00,
2013-06-01 20:08:00,89.3,89.3,29.69,South,173,0.0,3.0,100,0.00,,,0.00,0,Wunderground v.1.15,2013-06-02 03:08:00,
2013-06-01 20:14:00,88.6,88.6,29.69,South,173,0.0,0.0,100,0.00,,,0.00,0,Wunderground v.1.15,2013-06-02 03:14:00,
2013-06-01 20:19:00,88.3,88.3,29.69,South,173,0.0,0.0,100,0.00,,,0.00,0,Wunderground v.1.15,2013-06-02 03:19:00,
2013-06-01 20:25:00,87.7,87.7,29.69,South,173,0.0,0.0,100,0.00,,,0.00,0,Wunderground v.1.15,2013-06-02 03:25:00,
2013-06-01 20:30:00,87.3,87.3,29.69,South,173,0.0,0.0,100,0.00,,,0.00,0,Wunderground v.1.15,2013-06-02 03:30:00,
2013-06-01 20:36:00,86.5,86.5,29.69,South,173,0.0,0.0,100,0.00,,,0.00,0,Wunderground v.1.15,2013-06-02 03:36:00,
2013-06-01 20:42:00,85.6,-99.9,29.69,South,173,0.0,0.0,255,0.00,,,0.00,0,Wunderground v.1.15,2013-06-02 03:42:00,
2013-06-01 20:48:00,84.7,84.7,29.69,South,173,0.0,0.0,100,0.00,,,0.00,0,Wunderground v.1.15,2013-06-02 03:48:00,
2013-06-01 20:53:00,83.8,-99.9,29.69,South,173,0.0,0.0,255,0.00,,,0.00,0,Wunderground v.1.15,2013-06-02 03:53:00,
2013-06-01 20:59:00,83.4,-99.9,29.69,South,173,0.0,0.0,255,0.00,,,0.00,0,Wunderground v.1.15,2013-06-02 03:59:00,
2013-06-01 21:01:00,83.2,-99.9,29.69,South,173,0.0,2.0,255,0.00,,,0.00,0,Wunderground v.1.15,2013-06-02 04:01:00,
2013-06-01 21:02:00,83.1,-99.9,29.69,South,173,0.0,2.0,255,0.00,,,0.00,0,Wunderground v.1.15,2013-06-02 04:02:00,
2013-06-01 21:03:00,83.0,-99.9,29.69,South,173,0.0,2.0,255,0.00,,,0.00,0,Wunderground v.1.15,2013-06-02 04:03:00,
2013-06-01 21:08:00,82.7,-99.9,29.69,South,173,0.0,2.0,255,0.00,,,0.00,0,Wunderground v.1.15,2013-06-02 04:08:00,
2013-06-01 21:13:00,82.0,-99.9,29.69,South,173,0.0,0.0,255,0.00,,,0.00,0,Wunderground v.1.15,2013-06-02 04:13:00,
2013-06-01 21:18:00,81.6,81.6,29.69,South,173,0.0,0.0,100,0.00,,,0.00,0,Wunderground v.1.15,2013-06-02 04:18:00,
2013-06-01 21:24:00,80.9,80.9,29.69,South,173,0.0,0.0,100,0.00,,,0.00,0,Wunderground v.1.15,2013-06-02 04:24:00,
2013-06-01 21:29:00,80.3,80.3,29.69,South,173,0.0,0.0,100,0.00,,,0.00,0,Wunderground v.1.15,2013-06-02 04:29:00,
2013-06-01 21:35:00,79.9,79.9,29.69,South,173,0.0,0.0,100,0.00,,,0.00,0,Wunderground v.1.15,2013-06-02 04:35:00,
2013-06-01 21:41:00,79.5,79.5,29.69,South,173,0.0,0.0,100,0.00,,,0.00,0,Wunderground v.1.15,2013-06-02 04:41:00,
2013-06-01 21:47:00,79.1,79.1,29.69,South,173,0.0,0.0,100,0.00,,,0.00,0,Wunderground v.1.15,2013-06-02 04:47:00,
2013-06-01 21:52:00,78.8,78.8,29.69,South,173,0.0,0.0,100,0.00,,,0.00,0,Wunderground v.1.15,2013-06-02 04:52:00,
2013-06-01 21:58:00,78.4,78.4,29.70,South,173,0.0,0.0,100,0.00,,,0.00,0,Wunderground v.1.15,2013-06-02 04:58:00,
2013-06-01 22:04:00,78.1,78.1,29.70,South,173,0.0,1.0,100,0.00,,,0.00,0,Wunderground v.1.15,2013-06-02 05:04:00,
2013-06-01 22:09:00,77.7,77.7,29.70,South,173,0.0,1.0,100,0.00,,,0.00,0,Wunderground v.1.15,2013-06-02 05:09:00,
2013-06-01 22:15:00,77.1,77.1,29.70,SE,133,0.0,1.0,100,0.00,,,0.00,0,Wunderground v.1.15,2013-06-02 05:15:00,
2013-06-01 22:21:00,76.3,76.3,29.70,ESE,108,3.0,3.0,100,0.00,,,0.00,0,Wunderground v.1.15,2013-06-02 05:21:00,
2013-06-01 22:27:00,75.5,75.5,29.70,ESE,106,1.0,3.0,100,0.00,,,0.00,0,Wunderground v.1.15,2013-06-02 05:27:00,
2013-06-01 22:33:00,75.3,75.3,29.70,ESE,102,0.0,1.0,100,0.00,,,0.00,0,Wunderground v.1.15,2013-06-02 05:33:00,
2013-06-01 22:39:00,75.3,75.3,29.70,ESE,122,0.0,3.0,100,0.00,,,0.00,0,Wunderground v.1.15,2013-06-02 05:39:00,
2013-06-01 22:44:00,75.2,75.2,29.69,ESE,105,0.0,1.0,100,0.00,,,0.00,0,Wunderground v.1.15,2013-06-02 05:44:00,
2013-06-01 22:49:00,75.1,75.1,29.69,ESE,120,0.0,1.0,100,0.00,,,0.00,0,Wunderground v.1.15,2013-06-02 05:49:00,
2013-06-01 22:55:00,74.6,74.6,29.69,ESE,120,0.0,1.0,100,0.00,,,0.00,0,Wunderground v.1.15,2013-06-02 05:55:00,
2013-06-01 23:01:00,74.3,74.3,29.69,East,96,0.0,0.0,100,0.00,,,0.00,0,Wunderground v.1.15,2013-06-02 06:01:00,
2013-06-01 23:08:00,73.9,73.9,29.69,ESE,106,2.0,2.0,100,0.00,,,0.00,0,Wunderground v.1.15,2013-06-02 06:08:00,
2013-06-01 23:13:00,74.0,74.0,29.69,SE,125,1.0,3.0,100,0.00,,,0.00,0,Wunderground v.1.15,2013-06-02 06:13:00,
2013-06-01 23:19:00,74.1,74.1,29.69,ESE,121,2.0,3.0,100,0.00,,,0.00,0,Wunderground v.1.15,2013-06-02 06:19:00,
2013-06-01 23:25:00,74.2,74.2,29.69,ESE,120,1.0,5.0,100,0.00,,,0.00,0,Wunderground v.1.15,2013-06-02 06:25:00,
2013-06-01 23:31:00,73.5,73.5,29.69,ESE,104,0.0,0.0,100,0.00,,,0.00,0,Wunderground v.1.15,2013-06-02 06:31:00,
2013-06-01 23:37:00,73.1,73.1,29.69,ESE,114,3.0,3.0,100,0.00,,,0.00,0,Wunderground v.1.15,2013-06-02 06:37:00,
2013-06-01 23:43:00,73.2,73.2,29.69,ESE,118,2.0,2.0,100,0.00,,,0.00,0,Wunderground v.1.15,2013-06-02 06:43:00,
2013-06-01 23:49:00,73.3,73.3,29.69,ESE,112,0.0,2.0,100,0.00,,,0.00,0,Wunderground v.1.15,2013-06-02 06:49:00,
2013-06-01 23:55:00,73.0,73.0,29.69,ESE,112,0.0,0.0,100,0.00,,,0.00,0,Wunderground v.1.15,2013-06-02 06:55:00,